Time;durP1;ratioP1;P1;durP2;ratioP2;P2;SDS_P1;SDS_P2;PMS_P1;PMS_P2;Temp;Humidity;BMP_temperature;BMP_pressure;BME280_temperature;BME280_humidity;BME280_pressure;Samples;Min_cycle;Max_cycle;Signal;HPM_P1;HPM_P2
2022/11/04 00:01:14;;;;;;;;;;;;;;;26.55;33.42;101124.94;4978409;28;1193;-43
2022/11/04 00:03:39;;;;;;;;;;;;;;;26.56;33.29;101123.97;4978121;28;1216;-41
2022/11/04 00:06:05;;;;;;;;;;;;;;;26.59;33.18;101118.22;4978303;28;1142;-43
2022/11/04 00:08:30;;;;;;;;;;;;;;;26.61;33.36;101119.72;4977947;28;1153;-44
2022/11/04 00:13:39;;;;;;;;;;;;;;;26.49;33.62;101115.69;4977695;28;1168;-44
2022/11/04 00:18:49;;;;;;;;;;;;;;;26.46;34.08;101113.34;4977954;28;1141;-42
2022/11/04 00:29:26;;;;;;;;;;;;;;;26.42;33.92;101099.34;4977423;28;1169;-42
2022/11/04 00:34:35;;;;;;;;;;;;;;;26.43;34.08;101103.72;4972280;28;1114;-41
2022/11/04 00:37:01;;;;;;;;;;;;;;;26.46;33.71;101097.97;4978009;28;1903;-45
2022/11/04 00:39:27;;;;;;;;;;;;;;;26.47;33.74;101102.38;4977384;28;1118;-43
2022/11/04 00:41:52;;;;;;;;;;;;;;;26.43;34.13;101094.78;4977625;28;1130;-43
2022/11/04 00:44:17;;;;;;;;;;;;;;;26.41;34.09;101090.41;4977995;28;1169;-42
2022/11/04 00:46:43;;;;;;;;;;;;;;;26.39;33.91;101089.72;4976816;28;1220;-46
2022/11/04 00:49:08;;;;;;;;;;;;;;;26.39;34.01;101086.22;4991400;28;1190;-44
2022/11/04 00:51:33;;;;;;;;;;;;;;;26.34;34.01;101089.41;4977389;28;1204;-41
2022/11/04 00:53:58;;;;;;;;;;;;;;;26.38;34.14;101085.34;4977328;28;1121;-43
2022/11/04 00:56:24;;;;;;;;;;;;;;;26.37;34.12;101086.38;4977536;28;1960;-44
2022/11/04 00:58:49;;;;;;;;;;;;;;;26.36;34.16;101083.84;4960174;28;1232;-44
2022/11/04 01:01:17;;;;;;;;;;;;;;;26.33;33.72;101079.63;4976824;28;1180;-43
2022/11/04 01:03:49;;;;;;;;;;;;;;;26.34;33.85;101078.59;4977406;28;1130;-42
2022/11/04 01:06:15;;;;;;;;;;;;;;;26.39;33.75;101068.16;4976947;28;1177;-43
2022/11/04 01:08:40;;;;;;;;;;;;;;;26.48;33.95;101077.09;4977394;28;1126;-42
2022/11/04 01:11:06;;;;;;;;;;;;;;;26.43;33.77;101076.75;4977613;28;1125;-43
2022/11/04 01:13:31;;;;;;;;;;;;;;;26.43;33.61;101073.19;4977226;28;1118;-45
2022/11/04 01:15:57;;;;;;;;;;;;;;;26.42;33.98;101069.69;4959132;28;1960;-44
2022/11/04 01:18:23;;;;;;;;;;;;;;;26.41;33.91;101071.53;4977368;28;1158;-43
2022/11/04 01:20:48;;;;;;;;;;;;;;;26.36;34.16;101065.78;4977316;28;1165;-45
2022/11/04 01:23:13;;;;;;;;;;;;;;;26.35;34.15;101068.66;4976872;28;1144;-43
2022/11/04 01:25:40;;;;;;;;;;;;;;;26.39;33.99;101072.72;4977228;28;1153;-44
2022/11/04 01:28:05;;;;;;;;;;;;;;;26.38;34.04;101071.88;4976843;28;1138;-43
2022/11/04 01:30:30;;;;;;;;;;;;;;;26.41;34.13;101066.13;4976673;28;1204;-42
2022/11/04 01:32:55;;;;;;;;;;;;;;;26.39;33.74;101065.44;4976989;28;1181;-44
2022/11/04 01:35:21;;;;;;;;;;;;;;;26.37;33.82;101066.66;4977219;28;975;-45
2022/11/04 01:37:46;;;;;;;;;;;;;;;26.33;33.99;101065.28;4976149;28;1964;-41
2022/11/04 01:40:11;;;;;;;;;;;;;;;26.32;33.94;101061.75;4977281;28;1130;-43
2022/11/04 01:42:37;;;;;;;;;;;;;;;26.34;34.21;101058.91;4959874;28;1166;-42
2022/11/04 01:45:02;;;;;;;;;;;;;;;26.35;34.15;101056.03;4980846;28;1134;-42
2022/11/04 01:47:29;;;;;;;;;;;;;;;26.33;33.89;101057.19;4986289;28;920;-43
2022/11/04 01:49:56;;;;;;;;;;;;;;;26.31;33.97;101053.81;4988804;28;1173;-44
2022/11/04 01:52:24;;;;;;;;;;;;;;;26.30;34.06;101050.28;4980352;28;1153;-43
2022/11/04 01:54:49;;;;;;;;;;;;;;;26.31;33.83;101051.94;4963810;28;1212;-43
2022/11/04 01:57:18;;;;;;;;;;;;;;;26.40;33.77;101052.81;4980310;28;1898;-45
2022/11/04 01:59:44;;;;;;;;;;;;;;;26.38;33.84;101054.84;4979921;28;869;-42
2022/11/04 02:02:09;;;;;;;;;;;;;;;26.37;33.98;101048.63;4962988;28;1170;-43
2022/11/04 02:04:34;;;;;;;;;;;;;;;26.41;33.84;101051.78;4962962;28;1169;-44
2022/11/04 02:07:01;;;;;;;;;;;;;;;26.39;33.95;101051.97;4963131;28;1106;-43
2022/11/04 02:09:27;;;;;;;;;;;;;;;26.36;34.04;101055.00;4979963;28;1157;-43
2022/11/04 02:14:37;;;;;;;;;;;;;;;26.42;33.76;101045.41;4980004;28;1292;-43
2022/11/04 02:17:05;;;;;;;;;;;;;;;26.35;33.76;101037.16;4980415;28;1943;-44
2022/11/04 02:19:51;;;;;;;;;;;;;;;26.36;33.76;101035.31;4979756;28;1141;-43
2022/11/04 02:22:35;;;;;;;;;;;;;;;26.27;33.97;101035.28;4962481;28;1130;-44
2022/11/04 02:25:01;;;;;;;;;;;;;;;26.23;34.51;101033.94;4967655;28;1060;-41
2022/11/04 02:27:35;;;;;;;;;;;;;;;26.33;33.84;101035.63;4980289;28;1173;-43
2022/11/04 02:30:06;;;;;;;;;;;;;;;26.28;34.14;101039.66;4979168;28;1145;-41
2022/11/04 02:32:50;;;;;;;;;;;;;;;26.31;33.89;101030.38;4979811;28;1177;-43
2022/11/04 02:35:16;;;;;;;;;;;;;;;26.29;33.87;101033.25;4980056;28;893;-43
2022/11/04 02:37:44;;;;;;;;;;;;;;;26.29;34.06;101027.03;4979405;28;1979;-42
2022/11/04 02:40:18;;;;;;;;;;;;;;;26.23;34.44;101025.00;4979462;28;1118;-42
2022/11/04 02:42:49;;;;;;;;;;;;;;;26.17;34.87;101021.97;4949915;28;1122;-40
2022/11/04 02:45:22;;;;;;;;;;;;;;;26.10;34.20;101022.81;4978999;28;1115;-42
2022/11/04 02:47:55;;;;;;;;;;;;;;;27.39;32.75;101021.94;4970548;28;924;-42
2022/11/04 02:50:41;;;;;;;;;;;;;;;29.70;28.70;101026.16;4983249;28;1106;-45
2022/11/04 02:53:06;;;;;;;;;;;;;;;28.43;30.16;101024.34;4979437;28;1697;-45
2022/11/04 02:55:33;;;;;;;;;;;;;;;28.95;29.91;101031.72;4978298;28;1193;-44
2022/11/04 02:57:59;;;;;;;;;;;;;;;29.67;28.79;101023.84;4962024;28;1961;-46
2022/11/04 03:00:24;;;;;;;;;;;;;;;29.36;29.29;101018.69;4962124;28;1035;-43
2022/11/04 03:02:49;;;;;;;;;;;;;;;29.28;29.38;101025.88;4979329;28;1169;-42
2022/11/04 03:05:16;;;;;;;;;;;;;;;29.34;29.14;101019.69;4979077;28;1130;-43
2022/11/04 03:07:42;;;;;;;;;;;;;;;29.50;29.08;101023.22;4962500;28;1170;-42
2022/11/04 03:10:09;;;;;;;;;;;;;;;29.62;28.63;101023.56;4978779;28;1130;-43
2022/11/04 03:12:45;;;;;;;;;;;;;;;29.79;28.48;101032.28;4961944;28;951;-44
2022/11/04 03:15:12;;;;;;;;;;;;;;;29.89;28.36;101028.41;4962117;28;1193;-42
2022/11/04 03:17:43;;;;;;;;;;;;;;;30.01;28.24;101032.25;4961689;28;1911;-44
2022/11/04 03:20:11;;;;;;;;;;;;;;;30.14;28.04;101028.81;4961507;28;1162;-43
2022/11/04 03:22:36;;;;;;;;;;;;;;;30.27;27.82;101032.69;4961437;28;1483;-41
2022/11/04 03:25:02;;;;;;;;;;;;;;;30.24;27.71;101030.38;4961778;28;1196;-42
2022/11/04 03:27:30;;;;;;;;;;;;;;;30.24;28.01;101036.63;4979000;28;1146;-41
2022/11/04 03:30:00;;;;;;;;;;;;;;;30.34;27.41;101025.44;4978621;28;1149;-42
2022/11/04 03:32:28;;;;;;;;;;;;;;;30.31;27.98;101028.56;4978823;28;1220;-43
2022/11/04 03:34:53;;;;;;;;;;;;;;;30.19;27.97;101033.66;4978201;28;1412;-42
2022/11/04 03:37:19;;;;;;;;;;;;;;;30.22;27.97;101037.84;4961537;28;1979;-41
2022/11/04 03:39:44;;;;;;;;;;;;;;;30.13;28.12;101034.44;4978598;28;1137;-43
2022/11/04 03:42:19;;;;;;;;;;;;;;;30.29;27.66;101028.75;4978352;28;1145;-43
2022/11/04 03:45:10;;;;;;;;;;;;;;;29.93;28.12;101018.81;4978447;28;1213;-42
2022/11/04 03:47:35;;;;;;;;;;;;;;;30.29;27.75;101023.31;4975849;28;2216;-42
2022/11/04 03:50:07;;;;;;;;;;;;;;;29.93;28.17;101021.53;4977369;28;1153;-43
2022/11/04 03:52:32;;;;;;;;;;;;;;;29.90;28.39;101011.06;4980259;28;1794;-43
2022/11/04 03:54:57;;;;;;;;;;;;;;;29.64;28.81;101007.97;4971527;28;1930;-41
2022/11/04 03:57:38;;;;;;;;;;;;;;;29.00;26.00;101010.34;4992282;28;2278;-42
2022/11/04 04:00:10;;;;;;;;;;;;;;;27.75;27.05;100995.38;4975216;28;1847;-41
2022/11/04 04:02:38;;;;;;;;;;;;;;;27.23;27.82;100998.56;4984214;28;2172;-42
2022/11/04 04:05:11;;;;;;;;;;;;;;;26.83;27.40;100995.88;4977287;28;1871;-41
2022/11/04 04:07:48;;;;;;;;;;;;;;;26.86;28.54;100992.00;4965750;28;1174;-42
2022/11/04 04:10:40;;;;;;;;;;;;;;;27.35;28.48;100990.06;4985968;28;1049;-42
2022/11/04 04:13:24;;;;;;;;;;;;;;;27.46;31.90;100994.22;4977449;28;1062;-40
2022/11/04 04:15:52;;;;;;;;;;;;;;;27.39;31.15;100989.50;4977800;28;1157;-40
2022/11/04 04:18:18;;;;;;;;;;;;;;;27.38;31.22;100987.84;4960599;28;1932;-40
2022/11/04 04:20:46;;;;;;;;;;;;;;;27.38;31.08;100985.16;4959953;28;1110;-41
2022/11/04 04:28:49;;;;;;;;;;;;;;;27.10;32.14;101001.00;4927633;28;1199;-42
2022/11/04 04:31:48;;;;;;;;;;;;;;;27.00;32.19;100990.41;4977317;28;1206;-40
2022/11/04 04:34:00;;;;;;;;;;;;;;;26.91;32.66;100992.28;4962276;28;1353;-40
2022/11/04 04:36:25;;;;;;;;;;;;;;;26.83;32.46;100993.16;4973482;28;2507;-41
2022/11/04 04:47:22;;;;;;;;;;;;;;;26.65;31.13;100988.88;4945307;28;1202;-43
2022/11/04 04:49:54;;;;;;;;;;;;;;;26.27;30.54;100994.84;4960011;28;1102;-43
2022/11/04 04:52:19;;;;;;;;;;;;;;;25.94;30.71;100996.72;4976556;28;1161;-41
2022/11/04 04:54:45;;;;;;;;;;;;;;;25.41;30.65;100997.81;4987569;28;1098;-48
2022/11/04 04:57:10;;;;;;;;;;;;;;;25.01;30.91;100989.44;4977248;28;1894;-42
2022/11/04 04:59:35;;;;;;;;;;;;;;;24.46;32.13;100998.59;4981687;28;1094;-43
2022/11/04 05:02:01;;;;;;;;;;;;;;;24.25;32.24;100990.91;4980428;28;1188;-45
2022/11/04 05:04:26;;;;;;;;;;;;;;;23.89;31.35;100989.09;4977188;28;2437;-44
2022/11/04 05:06:51;;;;;;;;;;;;;;;24.36;31.22;100997.03;4977263;28;1113;-44
2022/11/04 05:09:16;;;;;;;;;;;;;;;24.76;30.96;100997.38;4976838;28;1141;-44
2022/11/04 05:11:42;;;;;;;;;;;;;;;24.90;30.42;100994.16;4981767;28;1200;-48
2022/11/04 05:14:07;;;;;;;;;;;;;;;24.99;29.96;100994.19;4978924;28;1085;-44
2022/11/04 05:16:32;;;;;;;;;;;;;;;24.96;29.29;101005.28;4976816;28;1890;-46
2022/11/04 05:18:58;;;;;;;;;;;;;;;24.95;29.89;101001.72;4962250;28;1165;-44
2022/11/04 05:21:23;;;;;;;;;;;;;;;24.97;29.38;100998.88;4980839;28;1122;-46
2022/11/04 05:23:48;;;;;;;;;;;;;;;24.91;29.55;100989.59;4980401;28;1157;-49
2022/11/04 05:26:14;;;;;;;;;;;;;;;24.93;29.61;100987.59;4980460;28;1157;-42
2022/11/04 05:28:39;;;;;;;;;;;;;;;24.79;29.82;100995.22;4981005;28;1138;-41
2022/11/04 05:31:05;;;;;;;;;;;;;;;24.57;30.38;100993.97;4980870;28;1117;-40
2022/11/04 05:33:30;;;;;;;;;;;;;;;24.60;30.82;100992.78;4964914;28;1126;-40
2022/11/04 05:36:04;;;;;;;;;;;;;;;24.74;32.00;100999.41;4977646;28;2220;-42
2022/11/04 05:38:29;;;;;;;;;;;;;;;24.70;32.22;100997.06;4960721;28;1143;-43
2022/11/04 05:40:56;;;;;;;;;;;;;;;24.67;33.04;101004.59;4960501;28;1305;-44
2022/11/04 05:43:21;;;;;;;;;;;;;;;24.76;32.85;101000.94;4961245;28;1319;-42
2022/11/04 05:45:47;;;;;;;;;;;;;;;24.72;33.50;101006.81;4960492;28;1213;-46
2022/11/04 05:48:12;;;;;;;;;;;;;;;24.90;33.61;101007.59;4966581;28;1245;-41
2022/11/04 05:50:37;;;;;;;;;;;;;;;25.16;32.87;101005.81;4980338;28;1269;-40
2022/11/04 05:53:02;;;;;;;;;;;;;;;25.34;32.65;101013.78;4962697;28;1545;-41
2022/11/04 05:55:28;;;;;;;;;;;;;;;25.42;32.76;101023.75;4980259;28;1296;-42
2022/11/04 05:57:53;;;;;;;;;;;;;;;25.45;32.58;101020.72;4979983;28;1906;-43
2022/11/04 06:00:18;;;;;;;;;;;;;;;25.49;33.02;101021.25;4979944;28;1221;-43
2022/11/04 06:02:44;;;;;;;;;;;;;;;25.51;33.12;101019.19;4979408;28;1217;-43
2022/11/04 06:05:09;;;;;;;;;;;;;;;25.57;33.17;101026.63;4962036;28;2339;-44
2022/11/04 06:07:34;;;;;;;;;;;;;;;25.63;33.53;101027.84;4979934;28;1209;-43
2022/11/04 06:10:00;;;;;;;;;;;;;;;25.84;33.13;101021.16;4979795;28;1284;-41
2022/11/04 06:12:25;;;;;;;;;;;;;;;25.89;33.18;101016.91;4981849;28;1273;-42
2022/11/04 06:14:50;;;;;;;;;;;;;;;25.99;33.09;101013.22;4979666;28;1293;-45
2022/11/04 06:17:16;;;;;;;;;;;;;;;26.01;33.45;101013.88;4979259;28;1963;-42
2022/11/04 06:19:41;;;;;;;;;;;;;;;26.10;33.12;101006.63;4962420;28;1217;-41
2022/11/04 06:22:08;;;;;;;;;;;;;;;26.17;33.08;101011.16;4960118;28;1205;-44
2022/11/04 06:24:33;;;;;;;;;;;;;;;26.19;33.27;101002.94;4961633;28;1312;-43
2022/11/04 06:26:58;;;;;;;;;;;;;;;26.36;32.70;101011.84;4959865;28;1288;-45
2022/11/04 06:29:24;;;;;;;;;;;;;;;26.45;32.47;101026.19;4959459;28;1218;-39
2022/11/04 06:31:49;;;;;;;;;;;;;;;26.47;32.51;101029.56;4960073;28;1257;-45
2022/11/04 06:34:14;;;;;;;;;;;;;;;26.57;32.52;101037.44;4960271;28;1792;-43
2022/11/04 06:36:40;;;;;;;;;;;;;;;26.75;32.46;101037.22;4979536;28;1906;-43
2022/11/04 06:39:05;;;;;;;;;;;;;;;26.67;32.00;101036.41;4979340;28;1274;-43
2022/11/04 06:41:30;;;;;;;;;;;;;;;26.63;32.44;101022.41;4979111;28;1281;-43
2022/11/04 06:43:56;;;;;;;;;;;;;;;26.58;32.36;101025.63;4979797;28;1252;-43
2022/11/04 06:46:25;;;;;;;;;;;;;;;26.51;32.67;101030.03;4979288;28;1236;-40
2022/11/04 06:48:50;;;;;;;;;;;;;;;26.52;32.41;101024.50;4979516;28;1184;-40
2022/11/04 06:51:16;;;;;;;;;;;;;;;26.57;32.60;101026.66;4979443;28;1102;-41
2022/11/04 06:53:41;;;;;;;;;;;;;;;26.67;32.71;101023.75;4978747;28;1200;-43
2022/11/04 06:56:06;;;;;;;;;;;;;;;26.48;32.72;101023.13;4978367;28;1894;-42
2022/11/04 06:58:32;;;;;;;;;;;;;;;26.44;32.57;101023.66;4960500;28;1233;-41
2022/11/04 07:00:57;;;;;;;;;;;;;;;26.42;33.01;101021.13;4960695;28;1434;-40
2022/11/04 07:03:22;;;;;;;;;;;;;;;26.45;32.59;101023.47;4979241;28;1192;-39
2022/11/04 07:05:47;;;;;;;;;;;;;;;26.46;32.75;101019.75;4978178;28;2433;-39
2022/11/04 07:08:13;;;;;;;;;;;;;;;26.64;32.58;101016.84;4978333;28;1189;-40
2022/11/04 07:10:38;;;;;;;;;;;;;;;27.04;32.24;101012.53;4971281;28;1206;-38
2022/11/04 07:13:03;;;;;;;;;;;;;;;27.21;31.52;101016.00;4984030;28;1141;-40
2022/11/04 07:15:29;;;;;;;;;;;;;;;26.95;31.87;101012.53;4977686;28;1149;-40
2022/11/04 07:17:54;;;;;;;;;;;;;;;26.89;32.00;101008.66;4978029;28;1910;-42
2022/11/04 07:20:19;;;;;;;;;;;;;;;27.00;31.94;101006.59;4978190;28;1220;-39
2022/11/04 07:22:45;;;;;;;;;;;;;;;27.08;31.74;101013.84;4969991;28;1457;-42
2022/11/04 07:25:10;;;;;;;;;;;;;;;26.82;30.88;101012.25;4981288;28;1499;-40
2022/11/04 07:27:35;;;;;;;;;;;;;;;26.89;32.11;101014.06;4982880;28;950;-39
2022/11/04 07:30:00;;;;;;;;;;;;;;;26.86;30.66;101011.72;4977637;28;1454;-42
2022/11/04 07:32:26;;;;;;;;;;;;;;;27.33;32.06;101003.75;4960841;28;1512;-41
2022/11/04 07:34:51;;;;;;;;;;;;;;;27.74;31.92;101004.53;4962199;28;1951;-42
2022/11/04 07:37:16;;;;;;;;;;;;;;;27.93;31.47;101007.72;4985396;28;1918;-41
2022/11/04 07:39:42;;;;;;;;;;;;;;;28.13;31.73;101007.22;4980854;28;1192;-43
2022/11/04 07:42:07;;;;;;;;;;;;;;;28.24;31.63;101002.19;4976937;28;1523;-44
2022/11/04 07:44:33;;;;;;;;;;;;;;;28.31;31.50;101005.00;4978083;28;1153;-44
2022/11/04 07:46:58;;;;;;;;;;;;;;;28.30;30.85;100997.91;4977465;28;1538;-46
2022/11/04 07:49:24;;;;;;;;;;;;;;;28.32;31.11;100995.03;4986396;28;1236;-42
2022/11/04 07:51:49;;;;;;;;;;;;;;;28.42;31.66;100998.34;4977336;28;1325;-44
2022/11/04 07:54:15;;;;;;;;;;;;;;;28.50;31.28;100996.53;4977667;28;1094;-43
2022/11/04 07:56:40;;;;;;;;;;;;;;;28.50;31.23;101002.81;4976963;28;1981;-44
2022/11/04 07:59:06;;;;;;;;;;;;;;;28.48;31.25;100994.03;4977630;28;1101;-46
2022/11/04 08:01:31;;;;;;;;;;;;;;;28.62;31.68;100992.38;4976526;28;1325;-45
2022/11/04 08:03:56;;;;;;;;;;;;;;;28.63;31.11;100990.50;4978113;28;1090;-41
2022/11/04 08:06:21;;;;;;;;;;;;;;;28.62;31.04;100988.81;4958449;28;2095;-42
2022/11/04 08:08:47;;;;;;;;;;;;;;;28.72;31.29;100992.06;4976050;28;1494;-44
2022/11/04 08:11:13;;;;;;;;;;;;;;;28.76;30.80;100984.41;4977833;28;1211;-41
2022/11/04 08:13:38;;;;;;;;;;;;;;;28.72;31.04;100978.53;4974990;28;1606;-40
2022/11/04 08:16:05;;;;;;;;;;;;;;;28.87;30.81;100991.22;4977462;28;1161;-41
2022/11/04 08:18:31;;;;;;;;;;;;;;;28.99;31.11;100987.03;4971419;28;1899;-42
2022/11/04 08:20:56;;;;;;;;;;;;;;;28.92;31.03;100983.34;4963555;28;1083;-41
2022/11/04 08:23:21;;;;;;;;;;;;;;;28.95;30.66;100986.53;4975071;28;1500;-41
2022/11/04 08:25:46;;;;;;;;;;;;;;;28.92;30.85;100980.66;4974596;28;1117;-41
2022/11/04 08:28:16;;;;;;;;;;;;;;;29.11;30.76;100979.25;4976098;28;1527;-42
2022/11/04 08:30:50;;;;;;;;;;;;;;;28.98;30.82;100970.97;4977097;28;1109;-41
2022/11/04 08:33:15;;;;;;;;;;;;;;;28.95;30.05;100973.00;4975144;28;1484;-51
2022/11/04 08:35:41;;;;;;;;;;;;;;;29.03;30.67;100979.38;4975326;28;1274;-45
2022/11/04 08:38:06;;;;;;;;;;;;;;;29.00;30.60;100971.59;4968267;28;1972;-41
2022/11/04 08:40:32;;;;;;;;;;;;;;;29.11;30.09;100964.84;4968423;28;1255;-41
2022/11/04 08:42:57;;;;;;;;;;;;;;;28.51;29.98;100966.59;4975249;28;1473;-44
2022/11/04 08:45:23;;;;;;;;;;;;;;;28.90;28.36;100956.47;4976157;28;1362;-42
2022/11/04 08:47:48;;;;;;;;;;;;;;;28.81;28.60;100958.44;4976115;28;1368;-43
2022/11/04 08:50:14;;;;;;;;;;;;;;;28.95;28.93;100940.50;4975599;28;1512;-42
2022/11/04 08:52:39;;;;;;;;;;;;;;;28.93;28.35;100939.84;4977116;28;1169;-43
2022/11/04 08:55:05;;;;;;;;;;;;;;;29.01;29.02;100941.63;4975132;28;1453;-40
2022/11/04 08:57:30;;;;;;;;;;;;;;;28.38;28.49;100942.91;4974893;28;1898;-41
2022/11/04 08:59:55;;;;;;;;;;;;;;;28.67;28.06;100930.38;4976592;28;1114;-41
2022/11/04 09:02:21;;;;;;;;;;;;;;;28.64;27.88;100941.59;4980848;28;1318;-40
2022/11/04 09:04:46;;;;;;;;;;;;;;;28.84;28.33;100927.47;4987816;28;1878;-42
2022/11/04 09:07:11;;;;;;;;;;;;;;;29.00;28.27;100939.09;4974110;28;1400;-37
2022/11/04 09:09:38;;;;;;;;;;;;;;;28.79;28.19;100943.44;4988140;28;1125;-41
2022/11/04 09:12:03;;;;;;;;;;;;;;;28.76;28.17;100933.81;4975693;28;1354;-40
2022/11/04 09:14:29;;;;;;;;;;;;;;;28.82;28.31;100930.34;4976472;28;915;-42
2022/11/04 09:16:54;;;;;;;;;;;;;;;28.75;28.36;100928.56;4975376;28;1949;-42
2022/11/04 09:19:19;;;;;;;;;;;;;;;28.75;28.40;100920.47;4974326;28;1421;-41
2022/11/04 09:21:45;;;;;;;;;;;;;;;28.67;28.60;100914.16;4975383;28;1481;-40
2022/11/04 09:24:11;;;;;;;;;;;;;;;28.81;28.48;100906.19;4976603;28;1202;-46
2022/11/04 09:26:36;;;;;;;;;;;;;;;28.89;28.72;100902.50;4969267;28;1270;-45
2022/11/04 09:29:01;;;;;;;;;;;;;;;28.99;28.40;100904.94;4964682;28;1217;-40
2022/11/04 09:31:27;;;;;;;;;;;;;;;28.98;28.26;100908.69;4967972;28;1301;-42
2022/11/04 09:33:53;;;;;;;;;;;;;;;28.95;28.41;100902.59;4968001;28;1106;-44
2022/11/04 09:36:19;;;;;;;;;;;;;;;28.87;28.33;100891.03;4976812;28;2082;-42
2022/11/04 09:38:44;;;;;;;;;;;;;;;28.87;28.73;100888.31;4970129;28;845;-41
2022/11/04 09:41:24;;;;;;;;;;;;;;;28.92;29.44;100891.28;4973892;28;1353;-44
2022/11/04 09:43:52;;;;;;;;;;;;;;;28.95;29.34;100888.19;4976175;28;1251;-42
2022/11/04 09:46:18;;;;;;;;;;;;;;;28.90;29.06;100883.38;4972402;28;1294;-43
2022/11/04 09:48:44;;;;;;;;;;;;;;;28.80;29.24;100872.84;4960899;28;1312;-42
2022/11/04 09:51:09;;;;;;;;;;;;;;;28.87;29.29;100869.38;4957333;28;1228;-44
2022/11/04 09:53:51;;;;;;;;;;;;;;;28.73;28.38;100859.25;4964336;28;1299;-42
2022/11/04 09:56:20;;;;;;;;;;;;;;;28.64;27.88;100856.84;4976180;28;1911;-42
2022/11/04 09:58:45;;;;;;;;;;;;;;;28.39;28.06;100844.50;4969025;28;1353;-48
2022/11/04 10:01:13;;;;;;;;;;;;;;;28.38;28.56;100839.28;4986564;28;1114;-40
2022/11/04 10:03:39;;;;;;;;;;;;;;;28.13;27.58;100840.38;4958543;28;1350;-44
2022/11/04 10:06:24;;;;;;;;;;;;;;;28.37;28.57;100846.53;4979300;28;2376;-44
2022/11/04 10:08:49;;;;;;;;;;;;;;;28.39;28.50;100839.09;4966497;28;1390;-38
2022/11/04 10:11:33;;;;;;;;;;;;;;;28.14;28.33;100839.38;4977331;28;1388;-41
2022/11/04 10:14:17;;;;;;;;;;;;;;;27.67;26.69;100830.56;4983491;28;1345;-40
2022/11/04 10:16:51;;;;;;;;;;;;;;;27.50;26.33;100825.31;4977258;28;1969;-41
2022/11/04 10:19:43;;;;;;;;;;;;;;;27.23;26.51;100825.72;4978889;28;1052;-42
2022/11/04 10:22:17;;;;;;;;;;;;;;;27.46;28.45;100811.34;4977931;28;1475;-37
2022/11/04 10:24:48;;;;;;;;;;;;;;;27.40;28.59;100814.78;4958029;28;1391;-41
2022/11/04 10:27:18;;;;;;;;;;;;;;;27.30;27.53;100809.63;4973796;28;1246;-43
2022/11/04 10:29:48;;;;;;;;;;;;;;;27.64;28.36;100810.16;4956749;28;1481;-39
2022/11/04 10:32:17;;;;;;;;;;;;;;;27.99;28.03;100796.13;4950017;28;1178;-40
2022/11/04 10:35:00;;;;;;;;;;;;;;;27.97;27.94;100792.75;4963557;28;1921;-39
2022/11/04 10:37:25;;;;;;;;;;;;;;;27.33;26.77;100779.56;4966038;28;1914;-41
2022/11/04 10:39:51;;;;;;;;;;;;;;;26.97;27.04;100788.28;4981930;28;971;-37
2022/11/04 10:42:17;;;;;;;;;;;;;;;26.88;27.53;100777.56;4962333;28;1169;-38
2022/11/04 10:44:42;;;;;;;;;;;;;;;27.26;27.39;100773.19;4945892;28;1386;-40
2022/11/04 10:47:17;;;;;;;;;;;;;;;27.47;27.79;100779.75;4946188;28;1302;-39
2022/11/04 10:49:57;;;;;;;;;;;;;;;27.54;28.05;100771.75;4961957;28;1157;-40
2022/11/04 10:52:23;;;;;;;;;;;;;;;26.97;27.03;100764.00;4978661;28;1154;-40
2022/11/04 10:54:48;;;;;;;;;;;;;;;27.17;27.28;100758.94;4962022;28;1162;-40
2022/11/04 10:57:19;;;;;;;;;;;;;;;27.42;28.10;100755.16;4979215;28;1955;-40
2022/11/04 10:59:49;;;;;;;;;;;;;;;27.58;27.99;100748.72;4978053;28;1185;-39
2022/11/04 11:02:14;;;;;;;;;;;;;;;27.68;28.00;100741.22;4961158;28;1098;-40
2022/11/04 11:04:40;;;;;;;;;;;;;;;27.69;28.32;100745.63;4982454;28;1848;-40
2022/11/04 11:07:07;;;;;;;;;;;;;;;27.63;27.92;100744.47;4981893;28;1120;-40
2022/11/04 11:09:33;;;;;;;;;;;;;;;27.69;28.14;100742.91;4961534;28;1039;-40
2022/11/04 11:12:02;;;;;;;;;;;;;;;27.55;27.99;100727.50;4962102;28;1142;-40
2022/11/04 11:14:28;;;;;;;;;;;;;;;27.76;27.82;100732.16;4983702;28;1078;-40
2022/11/04 11:16:56;;;;;;;;;;;;;;;27.63;27.86;100733.66;4984896;28;1907;-40
2022/11/04 11:19:23;;;;;;;;;;;;;;;27.70;28.21;100730.22;4978454;28;1110;-40
2022/11/04 11:21:53;;;;;;;;;;;;;;;27.26;26.86;100727.28;4979118;28;1097;-40
2022/11/04 11:24:22;;;;;;;;;;;;;;;27.49;27.67;100729.09;4978537;28;1129;-41
2022/11/04 11:26:54;;;;;;;;;;;;;;;27.66;27.78;100724.31;4985009;28;1216;-40
2022/11/04 11:29:20;;;;;;;;;;;;;;;27.75;27.58;100723.25;4980900;28;1155;-42
2022/11/04 11:31:46;;;;;;;;;;;;;;;27.71;27.90;100716.50;4978896;28;1165;-40
2022/11/04 11:34:15;;;;;;;;;;;;;;;27.81;28.40;100723.50;4961657;28;1811;-38
2022/11/04 11:36:40;;;;;;;;;;;;;;;27.81;27.99;100713.53;4973438;28;1969;-40
2022/11/04 11:39:12;;;;;;;;;;;;;;;27.91;28.05;100718.63;4986349;28;1157;-43
2022/11/04 11:41:56;;;;;;;;;;;;;;;27.89;27.94;100707.19;4964724;28;1118;-39
2022/11/04 11:44:32;;;;;;;;;;;;;;;27.83;28.27;100714.19;4977532;28;1224;-39
2022/11/04 11:47:00;;;;;;;;;;;;;;;27.82;28.44;100711.66;4977701;28;1137;-38
2022/11/04 11:49:30;;;;;;;;;;;;;;;27.94;28.07;100709.31;4977698;28;1161;-40
2022/11/04 11:51:55;;;;;;;;;;;;;;;27.82;28.75;100703.56;4984055;28;970;-41
2022/11/04 11:54:22;;;;;;;;;;;;;;;27.39;27.79;100705.06;4978414;28;1150;-39
2022/11/04 11:56:49;;;;;;;;;;;;;;;27.09;27.54;100703.16;4960781;28;1953;-41
2022/11/04 11:59:23;;;;;;;;;;;;;;;27.57;27.22;100698.44;4961150;28;1138;-42
2022/11/04 12:02:07;;;;;;;;;;;;;;;27.37;27.39;100694.44;4978362;28;1125;-39
2022/11/04 12:04:34;;;;;;;;;;;;;;;27.31;26.82;100695.16;4978014;28;1943;-40
2022/11/04 12:07:00;;;;;;;;;;;;;;;27.66;27.22;100691.88;4977513;28;1208;-40
2022/11/04 12:09:40;;;;;;;;;;;;;;;27.58;28.06;100679.31;4948821;28;1177;-40
2022/11/04 12:12:05;;;;;;;;;;;;;;;27.80;28.14;100674.00;4957435;28;1182;-39
2022/11/04 12:14:30;;;;;;;;;;;;;;;27.78;28.32;100675.25;4963069;28;1264;-40
2022/11/04 12:16:59;;;;;;;;;;;;;;;27.82;28.40;100673.81;4987452;28;1887;-40
2022/11/04 12:19:56;;;;;;;;;;;;;;;27.82;28.38;100690.03;4977486;28;1188;-39
2022/11/04 12:22:34;;;;;;;;;;;;;;;27.86;28.47;100667.03;4954508;28;1262;-41
2022/11/04 12:25:08;;;;;;;;;;;;;;;27.37;26.72;100671.97;4964200;28;1114;-41
2022/11/04 12:27:37;;;;;;;;;;;;;;;27.12;27.11;100675.81;4983603;28;1086;-39
2022/11/04 12:30:06;;;;;;;;;;;;;;;27.59;27.52;100675.59;4957918;28;1284;-41
2022/11/04 12:32:50;;;;;;;;;;;;;;;27.61;28.51;100672.72;4972135;28;1197;-39
2022/11/04 12:35:19;;;;;;;;;;;;;;;27.08;26.98;100660.13;4967156;28;2581;-39
2022/11/04 12:37:47;;;;;;;;;;;;;;;26.57;26.93;100657.06;4977289;28;1968;-40
2022/11/04 12:40:28;;;;;;;;;;;;;;;26.38;26.99;100655.66;4983559;28;913;-40
2022/11/04 12:42:59;;;;;;;;;;;;;;;26.33;26.64;100656.22;4960245;28;1138;-40
2022/11/04 12:45:44;;;;;;;;;;;;;;;26.24;26.84;100657.28;4977688;28;1188;-41
2022/11/04 12:48:11;;;;;;;;;;;;;;;26.34;26.69;100667.84;4977566;28;1153;-39
2022/11/04 12:50:41;;;;;;;;;;;;;;;27.00;26.99;100653.78;4976918;28;1133;-41
2022/11/04 12:53:24;;;;;;;;;;;;;;;27.26;27.36;100662.47;4969099;28;1058;-40
2022/11/04 12:56:01;;;;;;;;;;;;;;;27.47;27.00;100653.63;4975810;28;1119;-41
2022/11/04 12:58:31;;;;;;;;;;;;;;;27.51;27.41;100651.38;4959989;28;1966;-39
2022/11/04 13:01:00;;;;;;;;;;;;;;;27.53;27.18;100651.22;4976893;28;1276;-42
2022/11/04 13:03:31;;;;;;;;;;;;;;;27.55;27.37;100651.84;4981133;28;1312;-39
2022/11/04 13:05:58;;;;;;;;;;;;;;;27.60;27.64;100654.81;4959881;28;2468;-42
2022/11/04 13:08:24;;;;;;;;;;;;;;;27.65;27.56;100665.06;4959801;28;1094;-42
2022/11/04 13:10:55;;;;;;;;;;;;;;;27.38;28.24;100652.03;4977230;28;1102;-41
2022/11/04 13:13:22;;;;;;;;;;;;;;;26.93;28.43;100655.53;4977571;28;1094;-42
2022/11/04 13:15:49;;;;;;;;;;;;;;;26.66;29.82;100647.00;4979391;28;1142;-42
2022/11/04 13:18:18;;;;;;;;;;;;;;;26.58;30.26;100650.63;4977034;28;1902;-42
2022/11/04 13:20:57;;;;;;;;;;;;;;;26.56;30.80;100646.44;4976285;28;1113;-41
2022/11/04 13:23:38;;;;;;;;;;;;;;;26.32;30.04;100646.44;4959670;28;1376;-42
2022/11/04 13:26:04;;;;;;;;;;;;;;;26.09;29.49;100651.81;4959967;28;1209;-42